Time;durP1;ratioP1;P1;durP2;ratioP2;P2;SDS_P1;SDS_P2;PMS_P1;PMS_P2;Temp;Humidity;BMP_temperature;BMP_pressure;BME280_temperature;BME280_humidity;BME280_pressure;Samples;Min_cycle;Max_cycle;Signal;HPM_P1;HPM_P2
2021/07/24 00:01:32;;;;;;;8.58;5.25;;;;;;;12.83;83.76;95813.86;1795660;80;20946;-60
2021/07/24 00:03:58;;;;;;;11.50;5.00;;;;;;;12.87;83.66;95818.61;1795593;80;21029;-60
2021/07/24 00:06:25;;;;;;;6.62;5.22;;;;;;;12.87;83.28;95814.19;1795475;80;20971;-59
2021/07/24 00:08:51;;;;;;;6.45;4.58;;;;;;;12.86;82.88;95813.78;1795333;80;21067;-60
2021/07/24 00:11:18;;;;;;;8.15;5.10;;;;;;;12.87;82.71;95814.64;1795622;80;21529;-60
2021/07/24 00:13:44;;;;;;;7.95;5.20;;;;;;;12.80;83.03;95814.37;1795208;80;21054;-60
2021/07/24 00:16:10;;;;;;;10.25;5.40;;;;;;;12.76;83.09;95815.77;1795219;80;20990;-60
2021/07/24 00:18:37;;;;;;;7.83;4.92;;;;;;;12.80;83.42;95815.69;1795181;80;21015;-60
2021/07/24 00:21:04;;;;;;;8.10;5.55;;;;;;;12.79;83.43;95814.83;1795094;80;21018;-60
2021/07/24 00:23:30;;;;;;;6.85;4.30;;;;;;;12.85;83.47;95819.09;1795197;80;21485;-60
2021/07/24 00:25:57;;;;;;;6.65;4.70;;;;;;;12.87;83.08;95812.86;1795209;80;21014;-60
2021/07/24 00:28:23;;;;;;;6.65;4.67;;;;;;;12.87;82.61;95815.50;1795625;80;21030;-60
2021/07/24 00:30:50;;;;;;;5.85;4.87;;;;;;;12.83;82.37;95815.19;1795689;80;21504;-60
2021/07/24 00:33:18;;;;;;;5.40;4.47;;;;;;;12.79;82.64;95814.83;1794518;80;21023;-59
2021/07/24 00:35:45;;;;;;;5.78;4.42;;;;;;;12.74;82.49;95814.06;1795398;80;21015;-60
2021/07/24 00:38:11;;;;;;;5.45;4.37;;;;;;;12.66;82.73;95811.59;1795439;80;20982;-60
2021/07/24 00:40:46;;;;;;;12.10;5.67;;;;;;;12.64;83.24;95816.52;1795650;80;21500;-60
2021/07/24 00:43:14;;;;;;;5.83;4.65;;;;;;;12.70;83.32;95809.73;1795216;80;21021;-60
2021/07/24 00:45:47;;;;;;;7.00;4.95;;;;;;;12.74;83.02;95808.77;1795353;80;21094;-60
2021/07/24 00:48:21;;;;;;;6.33;4.90;;;;;;;12.72;83.09;95807.47;1795727;80;21062;-60
2021/07/24 00:50:53;;;;;;;7.62;4.17;;;;;;;12.73;82.86;95809.23;1734717;80;21709;-60
2021/07/24 00:53:24;;;;;;;5.90;4.22;;;;;;;12.73;82.47;95808.37;1795433;80;21022;-60
2021/07/24 00:55:52;;;;;;;5.42;4.50;;;;;;;12.62;82.13;95808.59;1795476;80;21015;-60
2021/07/24 00:58:25;;;;;;;6.08;4.20;;;;;;;12.58;82.74;95807.41;1795261;80;21496;-60
2021/07/24 01:00:53;;;;;;;7.05;4.70;;;;;;;12.66;82.41;95804.12;1795246;80;21110;-60
2021/07/24 01:03:20;;;;;;;5.55;4.60;;;;;;;12.65;82.35;95802.36;1795381;80;21045;-60
2021/07/24 01:05:54;;;;;;;8.15;4.25;;;;;;;12.62;82.44;95802.44;1795528;80;21501;-60
2021/07/24 01:08:21;;;;;;;7.58;4.90;;;;;;;12.58;82.79;95801.65;1795461;80;20994;-60
2021/07/24 01:10:50;;;;;;;8.05;5.40;;;;;;;12.58;82.54;95806.08;1795350;80;21441;-60
2021/07/24 01:13:17;;;;;;;6.65;5.22;;;;;;;12.52;82.44;95803.09;1795540;80;21041;-60
2021/07/24 01:15:51;;;;;;;8.63;4.83;;;;;;;12.51;82.47;95798.72;1795365;80;20986;-60
2021/07/24 01:18:20;;;;;;;5.83;4.47;;;;;;;12.50;82.29;95798.31;1794806;80;21080;-60
2021/07/24 01:20:50;;;;;;;6.47;4.60;;;;;;;12.37;82.48;95799.02;1795420;80;21457;-60
2021/07/24 01:23:18;;;;;;;7.47;5.20;;;;;;;12.28;82.50;95801.42;1764931;80;20982;-60
2021/07/24 01:25:51;;;;;;;7.33;4.80;;;;;;;12.24;82.64;95794.45;1764472;80;21002;-60
2021/07/24 01:28:32;;;;;;;6.50;4.53;;;;;;;12.27;82.55;95793.09;1764500;80;21002;-60
2021/07/24 01:31:04;;;;;;;7.87;4.58;;;;;;;12.27;82.71;95797.48;1795395;80;21012;-59
2021/07/24 01:33:32;;;;;;;11.35;5.20;;;;;;;12.18;82.67;95795.05;1795619;80;21500;-60
2021/07/24 01:35:59;;;;;;;5.85;3.98;;;;;;;12.15;82.55;95795.99;1795526;80;21429;-60
2021/07/24 01:38:28;;;;;;;6.92;4.45;;;;;;;12.17;82.59;95802.13;1795201;80;21041;-60
2021/07/24 01:40:57;;;;;;;5.00;3.75;;;;;;;12.10;83.02;95797.41;1794700;80;21473;-59
2021/07/24 01:43:24;;;;;;;5.60;4.20;;;;;;;12.06;83.20;95795.72;1795405;80;21002;-60
2021/07/24 01:45:51;;;;;;;6.35;4.72;;;;;;;12.01;82.69;95797.59;1795023;80;21041;-60
2021/07/24 01:48:31;;;;;;;6.33;4.40;;;;;;;11.99;82.58;95788.81;1795408;80;21129;-60
2021/07/24 01:53:34;;;;;;;4.60;3.98;;;;;;;12.06;82.97;95790.89;1794647;80;21058;-60
2021/07/24 01:56:04;;;;;;;7.17;4.10;;;;;;;12.05;82.64;95785.20;1787296;80;21058;-60
2021/07/24 01:58:37;;;;;;;4.67;3.65;;;;;;;12.00;82.82;95783.96;1787047;80;21019;-60
2021/07/24 02:01:06;;;;;;;;;;;;;;;12.01;83.38;95784.37;1788888;80;21034;-60
2021/07/24 02:03:44;;;;;;;6.83;3.95;;;;;;;12.11;83.64;95783.72;1754242;81;20098;-59
2021/07/24 02:06:24;;;;;;;6.35;4.60;;;;;;;12.17;83.89;95791.97;1786974;80;21053;-60
2021/07/24 02:09:04;;;;;;;7.15;4.33;;;;;;;12.24;83.63;95778.58;1784708;80;21010;-60
2021/07/24 02:11:31;;;;;;;5.53;4.17;;;;;;;12.38;83.74;95781.39;1786884;80;21126;-60
2021/07/24 02:13:59;;;;;;;7.95;4.37;;;;;;;12.46;83.04;95778.11;1754777;80;20998;-60
2021/07/24 02:16:27;;;;;;;8.78;4.05;;;;;;;12.47;82.52;95779.41;1786657;80;21006;-60
2021/07/24 02:18:55;;;;;;;7.28;4.10;;;;;;;12.46;82.49;95785.59;1786956;80;21497;-60
2021/07/24 02:21:24;;;;;;;7.83;4.45;;;;;;;12.45;82.21;95786.97;1786673;80;21504;-60
2021/07/24 02:23:50;;;;;;;6.20;4.28;;;;;;;12.39;82.16;95779.15;1786824;80;21025;-59
2021/07/24 02:26:18;;;;;;;8.63;4.60;;;;;;;12.40;81.86;95787.06;1754287;80;21019;-60
2021/07/24 02:28:44;;;;;;;8.08;4.20;;;;;;;12.33;82.26;95783.67;1787292;80;21015;-60
2021/07/24 02:31:11;;;;;;;6.92;4.17;;;;;;;12.28;82.63;95786.87;1786950;80;21038;-60
2021/07/24 02:33:38;;;;;;;8.05;4.30;;;;;;;12.34;82.45;95785.86;1786767;80;20998;-60
2021/07/24 02:36:07;;;;;;;5.30;4.53;;;;;;;12.38;82.68;95780.06;1786397;80;21050;-59
2021/07/24 02:38:34;;;;;;;7.65;4.25;;;;;;;12.31;83.33;95787.26;1787156;80;21038;-59
2021/07/24 02:41:04;;;;;;;5.45;4.12;;;;;;;12.39;83.47;95780.47;1786745;80;21050;-59
2021/07/24 02:43:31;;;;;;;6.15;4.42;;;;;;;12.45;83.21;95781.22;1787014;80;20970;-60
2021/07/24 02:45:57;;;;;;;9.65;5.20;;;;;;;12.51;82.93;95778.87;1786628;80;20991;-60
2021/07/24 02:48:24;;;;;;;6.58;5.37;;;;;;;12.56;82.86;95785.79;1787068;80;21007;-60
2021/07/24 02:51:08;;;;;;;6.90;5.20;;;;;;;12.55;82.77;95781.42;1745264;80;21051;-60
2021/07/24 02:53:35;;;;;;;9.93;4.67;;;;;;;12.56;82.56;95778.31;1787279;80;20968;-60
2021/07/24 02:56:04;;;;;;;7.22;4.42;;;;;;;12.49;82.83;95782.00;1787053;80;21088;-60
2021/07/24 02:58:33;;;;;;;8.48;4.90;;;;;;;12.40;82.05;95776.91;1786546;80;21133;-60
2021/07/24 03:01:07;;;;;;;7.40;4.08;;;;;;;12.29;82.56;95775.38;1786690;80;21584;-59
2021/07/24 03:03:35;;;;;;;6.40;4.67;;;;;;;12.24;82.43;95777.71;1786163;80;21541;-60
2021/07/24 03:06:03;;;;;;;7.37;4.25;;;;;;;12.07;83.21;95773.67;1787142;80;21026;-60
2021/07/24 03:08:29;;;;;;;7.42;4.05;;;;;;;12.03;83.79;95775.95;1787123;80;21342;-60
2021/07/24 03:10:56;;;;;;;6.97;4.30;;;;;;;12.04;83.59;95771.53;1787014;80;20982;-60
2021/07/24 03:13:22;;;;;;;6.97;4.50;;;;;;;12.09;83.47;95776.27;1786841;80;21019;-60
2021/07/24 03:15:49;;;;;;;9.35;4.78;;;;;;;12.16;83.81;95775.70;1787054;80;20999;-60
2021/07/24 03:18:15;;;;;;;5.30;4.50;;;;;;;12.18;83.92;95772.57;1786792;80;20995;-60
2021/07/24 03:20:41;;;;;;;6.97;4.45;;;;;;;12.14;83.92;95778.36;1787015;80;21007;-60
2021/07/24 03:23:08;;;;;;;7.45;4.30;;;;;;;12.17;84.06;95775.67;1786737;80;21002;-60
2021/07/24 03:25:35;;;;;;;8.75;4.50;;;;;;;12.21;83.94;95775.14;1786700;80;21018;-60
2021/07/24 03:28:01;;;;;;;9.35;4.42;;;;;;;12.24;83.55;95777.71;1786741;80;21061;-59
2021/07/24 03:30:28;;;;;;;6.80;4.12;;;;;;;12.16;83.48;95777.02;1786862;80;20976;-60
2021/07/24 03:32:54;;;;;;;9.45;4.33;;;;;;;12.26;83.74;95787.36;1786768;80;21062;-59
2021/07/24 03:35:20;;;;;;;6.35;4.70;;;;;;;12.34;83.38;95782.75;1787117;80;21497;-60
2021/07/24 03:37:47;;;;;;;9.45;4.62;;;;;;;12.40;83.26;95781.77;1786698;80;21086;-60
2021/07/24 03:40:14;;;;;;;9.43;5.30;;;;;;;12.39;83.18;95777.83;1754259;80;21019;-60
2021/07/24 03:42:40;;;;;;;5.53;3.77;;;;;;;12.47;82.93;95782.48;1787022;80;21082;-60
2021/07/24 03:45:08;;;;;;;6.35;4.55;;;;;;;12.48;82.89;95784.24;1786703;80;21006;-60
2021/07/24 03:47:34;;;;;;;10.00;4.83;;;;;;;12.49;83.40;95782.00;1753206;80;20979;-59
2021/07/24 03:50:01;;;;;;;6.30;4.15;;;;;;;12.54;83.57;95784.95;1787168;80;20980;-60
2021/07/24 03:52:27;;;;;;;6.35;4.28;;;;;;;12.61;83.30;95788.34;1786731;80;21086;-60
2021/07/24 03:54:54;;;;;;;5.60;4.10;;;;;;;12.66;83.31;95786.91;1789406;80;21461;-60
2021/07/24 03:57:20;;;;;;;5.40;4.10;;;;;;;12.71;83.19;95787.21;1795420;80;21022;-60
2021/07/24 03:59:47;;;;;;;6.50;4.72;;;;;;;12.79;83.55;95785.70;1795129;80;21014;-60
2021/07/24 04:02:18;;;;;;;18.52;5.97;;;;;;;12.87;83.43;95785.05;1795639;80;21011;-60
2021/07/24 04:04:41;;;;;;;5.58;4.72;;;;;;;12.99;83.50;95782.56;1794937;80;21015;-60
2021/07/24 04:07:08;;;;;;;5.78;4.92;;;;;;;13.12;83.08;95788.42;1795154;80;21010;-60
2021/07/24 04:09:35;;;;;;;6.62;5.17;;;;;;;13.25;82.91;95789.84;1795215;80;21058;-60
2021/07/24 04:12:02;;;;;;;9.20;5.30;;;;;;;13.31;82.71;95790.19;1795225;80;21053;-60
2021/07/24 04:14:29;;;;;;;7.72;5.08;;;;;;;13.45;82.71;95778.75;1795442;80;20990;-59
2021/07/24 04:16:56;;;;;;;8.13;5.45;;;;;;;13.56;82.16;95787.30;1795224;80;21507;-60
2021/07/24 04:19:22;;;;;;;7.62;5.30;;;;;;;13.59;81.81;95785.02;1795747;80;21018;-60
2021/07/24 04:21:48;;;;;;;6.95;5.45;;;;;;;13.60;82.18;95785.42;1795185;80;21097;-60
2021/07/24 04:24:18;;;;;;;8.65;5.78;;;;;;;13.66;82.13;95785.27;1795631;80;21078;-60
2021/07/24 04:26:43;;;;;;;7.45;5.42;;;;;;;13.75;82.00;95784.99;1795512;80;21011;-60
2021/07/24 04:29:09;;;;;;;8.60;5.60;;;;;;;13.79;81.74;95783.14;1795257;80;21065;-60
2021/07/24 04:31:37;;;;;;;8.05;6.03;;;;;;;13.89;81.96;95781.97;1795354;80;21497;-60
2021/07/24 04:34:04;;;;;;;8.50;5.65;;;;;;;14.02;82.03;95788.65;1795494;80;21488;-60
2021/07/24 04:36:30;;;;;;;6.62;5.92;;;;;;;14.14;82.22;95782.59;1795472;80;21030;-60
2021/07/24 04:38:57;;;;;;;7.85;5.50;;;;;;;14.25;82.00;95781.80;1795149;80;21045;-59
2021/07/24 04:41:23;;;;;;;9.75;6.05;;;;;;;14.35;81.84;95781.93;1795407;80;21011;-60
2021/07/24 04:43:50;;;;;;;7.75;5.72;;;;;;;14.43;81.10;95783.88;1795410;80;21019;-60
2021/07/24 04:46:17;;;;;;;8.05;5.15;;;;;;;14.50;80.91;95779.27;1795267;80;21023;-60
2021/07/24 04:48:44;;;;;;;7.65;5.40;;;;;;;14.59;80.21;95776.37;1764439;80;21537;-60
2021/07/24 04:51:14;;;;;;;8.38;5.45;;;;;;;14.67;79.93;95779.64;1795582;80;21014;-60
2021/07/24 04:53:44;;;;;;;6.87;5.30;;;;;;;14.77;79.88;95780.69;1795561;80;21536;-60
2021/07/24 04:56:11;;;;;;;9.45;6.00;;;;;;;14.89;80.26;95782.48;1789144;80;21453;-60
2021/07/24 04:58:39;;;;;;;8.30;5.15;;;;;;;15.06;80.27;95777.06;1786836;80;20995;-60
2021/07/24 05:01:05;;;;;;;8.03;5.30;;;;;;;15.23;80.37;95780.03;1787024;80;21029;-60
2021/07/24 05:03:33;;;;;;;8.25;5.53;;;;;;;15.39;80.22;95781.70;1787236;80;20995;-60
2021/07/24 05:06:00;;;;;;;6.42;5.12;;;;;;;15.53;80.02;95775.45;1786847;80;21377;-60
2021/07/24 05:08:27;;;;;;;7.10;5.60;;;;;;;15.67;79.35;95781.59;1787245;80;20967;-60
2021/07/24 05:10:54;;;;;;;8.30;5.22;;;;;;;15.77;78.89;95776.84;1754093;80;20967;-60
2021/07/24 05:13:21;;;;;;;6.78;5.17;;;;;;;15.89;78.54;95777.73;1787163;80;21508;-60
2021/07/24 05:15:47;;;;;;;9.33;5.00;;;;;;;16.04;77.97;95772.78;1787207;80;21457;-60
2021/07/24 05:18:14;;;;;;;9.80;4.65;;;;;;;16.13;76.57;95775.11;1787255;80;21480;-60
2021/07/24 05:20:40;;;;;;;8.15;5.22;;;;;;;16.24;76.90;95778.23;1787187;80;21022;-60
2021/07/24 05:23:07;;;;;;;7.95;4.67;;;;;;;16.37;76.37;95777.30;1787108;80;21497;-60
2021/07/24 05:25:34;;;;;;;8.35;5.28;;;;;;;16.47;74.42;95780.47;1787373;80;21003;-60
2021/07/24 05:28:01;;;;;;;10.05;5.20;;;;;;;16.40;73.47;95779.39;1787053;80;21038;-60
2021/07/24 05:30:27;;;;;;;8.45;5.33;;;;;;;16.55;74.61;95777.91;1786775;80;21102;-60
2021/07/24 05:32:53;;;;;;;5.62;4.90;;;;;;;16.66;74.12;95777.50;1786971;80;21023;-60
2021/07/24 05:35:20;;;;;;;6.67;4.53;;;;;;;16.77;74.51;95773.94;1786963;80;21469;-60
2021/07/24 05:37:46;;;;;;;5.50;5.00;;;;;;;16.82;73.63;95770.66;1787142;80;21441;-60
2021/07/24 05:40:14;;;;;;;5.87;5.22;;;;;;;16.89;73.71;95770.42;1787150;80;21007;-60
2021/07/24 05:42:40;;;;;;;5.42;4.83;;;;;;;17.06;72.75;95768.80;1787172;80;20994;-60
2021/07/24 05:45:08;;;;;;;5.87;4.62;;;;;;;17.06;72.75;95768.80;1787116;80;21042;-60
2021/07/24 05:47:35;;;;;;;7.70;5.30;;;;;;;17.12;71.77;95769.00;1787073;80;21010;-60
2021/07/24 05:50:04;;;;;;;6.83;4.78;;;;;;;17.19;71.59;95770.48;1787042;80;21014;-60
2021/07/24 05:52:31;;;;;;;7.15;4.97;;;;;;;17.27;71.57;95772.83;1787215;80;21011;-60
2021/07/24 05:54:57;;;;;;;7.05;5.00;;;;;;;17.34;70.94;95768.08;1786972;80;21484;-60
2021/07/24 05:57:23;;;;;;;8.33;5.25;;;;;;;17.40;68.15;95770.51;1786832;80;21046;-60
2021/07/24 05:59:50;;;;;;;7.10;4.90;;;;;;;17.50;69.81;95767.84;1786724;80;21082;-60
2021/07/24 06:02:17;;;;;;;5.78;5.20;;;;;;;17.64;70.20;95769.91;1787050;80;20995;-60
2021/07/24 06:04:43;;;;;;;6.35;4.95;;;;;;;17.73;70.25;95769.52;1787010;80;20996;-60
2021/07/24 06:07:11;;;;;;;5.90;5.03;;;;;;;17.84;69.85;95769.06;1786812;80;21556;-60
2021/07/24 06:09:38;;;;;;;5.58;5.05;;;;;;;17.92;70.09;95762.94;1787101;80;20999;-60
2021/07/24 06:12:07;;;;;;;5.67;5.15;;;;;;;18.02;69.57;95761.59;1753937;80;21014;-60
2021/07/24 06:14:34;;;;;;;6.67;4.87;;;;;;;18.15;69.23;95766.76;1787090;80;21007;-60
2021/07/24 06:17:00;;;;;;;8.83;5.17;;;;;;;18.23;68.12;95760.20;1786595;80;21073;-60
2021/07/24 06:19:28;;;;;;;6.67;5.58;;;;;;;18.34;66.70;95760.56;1786726;80;21066;-60
2021/07/24 06:21:55;;;;;;;7.40;5.87;;;;;;;18.43;67.51;95760.14;1786870;80;21042;-60
2021/07/24 06:24:21;;;;;;;6.83;6.03;;;;;;;18.59;68.23;95762.95;1786806;80;21027;-60
2021/07/24 06:26:48;;;;;;;6.90;6.15;;;;;;;18.70;68.33;95762.46;1786840;80;20999;-60
2021/07/24 06:29:14;;;;;;;8.25;5.70;;;;;;;18.81;67.80;95756.14;1787054;80;21480;-60
2021/07/24 06:31:40;;;;;;;7.95;6.78;;;;;;;18.92;68.90;95758.28;1787223;80;21050;-60
2021/07/24 06:34:07;;;;;;;6.83;6.05;;;;;;;19.06;69.04;95757.63;1786678;80;21014;-60
2021/07/24 06:36:33;;;;;;;8.75;6.42;;;;;;;19.20;69.03;95751.98;1787190;80;20999;-60
2021/07/24 06:39:00;;;;;;;6.47;5.05;;;;;;;19.35;68.76;95753.48;1786784;80;21030;-60
2021/07/24 06:41:30;;;;;;;6.62;5.80;;;;;;;19.38;67.39;95752.01;1787300;80;21023;-59
2021/07/24 06:43:55;;;;;;;6.50;5.20;;;;;;;19.50;67.76;95749.16;1786774;80;21011;-60
2021/07/24 06:46:23;;;;;;;9.73;5.53;;;;;;;19.67;68.13;95748.70;1786775;80;20992;-60
2021/07/24 06:48:49;;;;;;;6.20;5.40;;;;;;;19.83;68.25;95754.15;1786853;80;21015;-60
2021/07/24 06:51:16;;;;;;;5.50;4.95;;;;;;;20.00;67.85;95751.03;1786735;80;21071;-60
2021/07/24 06:53:42;;;;;;;6.65;5.37;;;;;;;20.13;67.90;95748.08;1787165;80;21484;-60
2021/07/24 06:56:09;;;;;;;8.78;6.10;;;;;;;20.31;68.19;95752.47;1790173;80;21034;-60
2021/07/24 06:58:36;;;;;;;7.25;5.37;;;;;;;20.53;68.51;95751.27;1795333;80;21010;-60
2021/07/24 07:01:07;;;;;;;6.12;5.53;;;;;;;20.72;67.36;95743.97;1795032;80;21093;-60
2021/07/24 07:03:35;;;;;;;9.28;5.33;;;;;;;20.86;66.31;95740.98;1795282;80;21015;-60
2021/07/24 07:06:07;;;;;;;7.35;5.72;;;;;;;20.94;66.48;95745.42;1795358;80;21043;-60
2021/07/24 07:08:34;;;;;;;5.65;5.05;;;;;;;21.13;66.64;95739.87;1794597;80;20971;-60
2021/07/24 07:11:05;;;;;;;6.85;5.50;;;;;;;21.29;65.91;95739.84;1795177;80;21019;-60
2021/07/24 07:13:32;;;;;;;4.65;4.20;;;;;;;21.44;65.02;95737.62;1795443;80;20998;-60
2021/07/24 07:16:07;;;;;;;7.97;5.08;;;;;;;21.45;56.85;95736.69;1795291;80;21010;-60
2021/07/24 07:18:36;;;;;;;6.80;5.15;;;;;;;21.60;59.66;95740.28;1795332;80;21057;-60
2021/07/24 07:21:04;;;;;;;6.35;5.15;;;;;;;21.71;59.38;95743.66;1795512;80;21045;-60
2021/07/24 07:23:30;;;;;;;7.10;4.55;;;;;;;21.82;60.69;95739.83;1795357;80;21034;-60
2021/07/24 07:25:57;;;;;;;5.95;4.60;;;;;;;21.95;59.72;95742.66;1795516;80;21518;-60
2021/07/24 07:28:23;;;;;;;6.97;4.70;;;;;;;22.09;58.34;95745.83;1795461;80;21079;-60
2021/07/24 07:30:50;;;;;;;9.80;5.22;;;;;;;22.12;56.40;95746.48;1795000;80;21331;-60
2021/07/24 07:33:16;;;;;;;7.47;5.28;;;;;;;22.22;57.03;95748.16;1795245;80;21010;-60
2021/07/24 07:35:43;;;;;;;6.95;5.12;;;;;;;22.25;56.53;95745.27;1795281;80;21429;-60
2021/07/24 07:38:10;;;;;;;7.15;5.08;;;;;;;22.23;52.13;95744.05;1795395;80;21035;-60
2021/07/24 07:40:38;;;;;;;7.12;4.67;;;;;;;22.31;55.39;95745.39;1795360;80;21041;-60
2021/07/24 07:43:07;;;;;;;4.97;4.50;;;;;;;22.43;56.08;95745.97;1795483;80;21049;-60
2021/07/24 07:45:34;;;;;;;9.15;4.60;;;;;;;22.55;55.85;95744.31;1795563;80;20979;-60
2021/07/24 07:48:00;;;;;;;7.35;5.03;;;;;;;22.65;54.18;95747.69;1795368;80;20990;-60
2021/07/24 07:50:27;;;;;;;5.95;4.67;;;;;;;22.78;55.33;95746.86;1795165;80;21557;-60
2021/07/24 07:52:53;;;;;;;6.83;4.40;;;;;;;22.88;55.53;95744.84;1795229;80;21002;-60
2021/07/24 07:55:20;;;;;;;6.50;4.72;;;;;;;23.00;55.18;95745.89;1795603;80;21555;-60
2021/07/24 07:57:46;;;;;;;5.95;4.70;;;;;;;23.06;52.72;95752.23;1795129;80;21074;-60
2021/07/24 08:00:14;;;;;;;5.40;4.80;;;;;;;23.11;53.40;95751.45;1795673;80;20979;-60
2021/07/24 08:02:41;;;;;;;5.25;4.25;;;;;;;23.20;53.57;95755.34;1796064;80;20998;-60
2021/07/24 08:05:09;;;;;;;7.12;4.83;;;;;;;23.27;52.94;95749.94;1795200;80;21558;-60
2021/07/24 08:07:35;;;;;;;5.47;4.60;;;;;;;23.36;53.17;95759.25;1795665;80;20993;-60
2021/07/24 08:10:03;;;;;;;7.10;5.20;;;;;;;23.43;51.95;95753.81;1795646;80;21002;-60
2021/07/24 08:12:30;;;;;;;7.42;4.75;;;;;;;23.52;53.19;95753.69;1795524;80;21021;-60
2021/07/24 08:14:57;;;;;;;6.40;5.30;;;;;;;23.64;53.65;95754.70;1795510;80;21504;-60
2021/07/24 08:17:23;;;;;;;7.25;5.10;;;;;;;23.71;53.66;95756.88;1795451;80;21070;-60
2021/07/24 08:19:50;;;;;;;7.03;5.08;;;;;;;23.71;50.74;95758.67;1795382;80;21168;-60
2021/07/24 08:22:17;;;;;;;5.05;4.55;;;;;;;23.77;50.85;95752.92;1795416;80;21014;-60
2021/07/24 08:24:44;;;;;;;7.37;4.30;;;;;;;23.86;50.65;95755.45;1795223;80;21532;-60
2021/07/24 08:27:11;;;;;;;5.55;4.53;;;;;;;23.95;51.01;95762.42;1795309;80;21074;-60
2021/07/24 08:29:37;;;;;;;6.15;4.55;;;;;;;24.00;49.93;95759.42;1795346;80;21041;-60
2021/07/24 08:32:09;;;;;;;5.30;4.62;;;;;;;23.99;49.48;95760.41;1795270;80;21071;-60
2021/07/24 08:34:36;;;;;;;5.83;4.45;;;;;;;24.06;50.14;95771.60;1795728;80;21528;-60
2021/07/24 08:37:06;;;;;;;4.20;3.80;;;;;;;24.13;49.33;95767.52;1795500;80;21074;-60
2021/07/24 08:39:35;;;;;;;5.33;4.65;;;;;;;24.21;49.60;95769.67;1795385;80;21023;-60
2021/07/24 08:42:03;;;;;;;4.87;4.33;;;;;;;24.27;48.12;95770.61;1795471;80;21018;-60
2021/07/24 08:44:30;;;;;;;7.53;4.80;;;;;;;24.24;45.38;95771.69;1794327;80;21074;-60
2021/07/24 08:46:57;;;;;;;6.22;4.40;;;;;;;24.27;46.63;95771.95;1764652;80;21485;-60
2021/07/24 08:49:23;;;;;;;4.70;4.20;;;;;;;24.41;48.03;95774.52;1795225;80;20967;-60
2021/07/24 08:51:52;;;;;;;5.08;4.20;;;;;;;24.50;47.23;95769.88;1795194;80;21517;-60
2021/07/24 08:54:19;;;;;;;4.72;4.17;;;;;;;24.56;47.30;95772.61;1795124;80;21058;-60
2021/07/24 08:56:47;;;;;;;9.30;4.30;;;;;;;24.59;46.83;95775.97;1764346;80;21018;-60
2021/07/24 08:59:18;;;;;;;5.70;4.25;;;;;;;24.70;46.70;95768.45;1795589;80;21010;-60
2021/07/24 09:01:54;;;;;;;5.60;4.20;;;;;;;24.83;47.70;95770.63;1795473;80;20987;-60
2021/07/24 09:04:22;;;;;;;5.80;4.55;;;;;;;24.89;45.96;95765.76;1795369;80;21045;-60
2021/07/24 09:06:54;;;;;;;9.40;4.20;;;;;;;24.96;46.81;95763.84;1795493;80;21030;-60
2021/07/24 09:09:21;;;;;;;4.78;4.28;;;;;;;25.04;45.27;95764.14;1794602;80;21600;-60
2021/07/24 09:11:49;;;;;;;4.78;4.28;;;;;;;25.03;44.48;95762.92;1795588;80;20994;-60
2021/07/24 09:14:15;;;;;;;4.85;4.30;;;;;;;25.17;46.12;95768.67;1795436;80;21082;-60
2021/07/24 09:16:44;;;;;;;6.67;3.77;;;;;;;25.28;45.54;95762.50;1795182;80;21029;-60
2021/07/24 09:19:11;;;;;;;5.08;4.20;;;;;;;25.39;42.96;95758.49;1795065;80;21038;-60
2021/07/24 09:21:38;;;;;;;5.35;3.95;;;;;;;25.25;42.88;95760.89;1795345;80;21003;-60
2021/07/24 09:24:20;;;;;;;4.75;4.05;;;;;;;25.28;42.93;95762.00;1795151;80;21014;-60
2021/07/24 09:26:48;;;;;;;7.93;4.20;;;;;;;25.43;43.98;95756.80;1795816;80;21025;-60
2021/07/24 09:29:20;;;;;;;4.72;4.30;;;;;;;25.60;42.63;95758.70;1795092;80;21018;-60
2021/07/24 09:31:48;;;;;;;4.17;3.77;;;;;;;25.75;44.24;95760.73;1795631;80;20978;-60
2021/07/24 09:34:16;;;;;;;5.37;3.72;;;;;;;25.72;42.47;95762.33;1794985;80;21066;-60
2021/07/24 09:36:45;;;;;;;5.15;4.12;;;;;;;25.79;43.10;95757.69;1764578;80;20998;-60
2021/07/24 09:39:19;;;;;;;9.95;4.20;;;;;;;25.86;42.16;95752.72;1795429;80;21503;-60
2021/07/24 09:41:48;;;;;;;6.62;4.20;;;;;;;25.87;41.87;95758.48;1795518;80;21007;-60
2021/07/24 09:44:29;;;;;;;6.08;4.30;;;;;;;25.84;40.02;95753.28;1795447;80;21017;-60
2021/07/24 09:46:57;;;;;;;4.92;4.22;;;;;;;25.82;42.16;95746.63;1795452;80;21037;-60
2021/07/24 09:49:40;;;;;;;6.05;4.60;;;;;;;26.01;42.36;95739.86;1795684;80;20979;-61
2021/07/24 09:52:14;;;;;;;5.75;4.40;;;;;;;26.18;42.55;95746.13;1795584;80;20970;-60
2021/07/24 09:54:41;;;;;;;6.03;4.30;;;;;;;26.25;43.07;95742.47;1795563;80;21065;-60
2021/07/24 09:57:08;;;;;;;5.25;4.15;;;;;;;26.40;43.29;95744.45;1795472;80;21011;-60
2021/07/24 09:59:36;;;;;;;5.53;4.08;;;;;;;26.51;43.61;95741.28;1795147;80;21547;-60
2021/07/24 10:02:06;;;;;;;4.78;4.25;;;;;;;26.63;44.12;95738.09;1795172;80;21018;-60
2021/07/24 10:04:40;;;;;;;4.53;3.62;;;;;;;26.68;45.15;95737.73;1794958;80;21090;-60
2021/07/24 10:07:09;;;;;;;5.47;4.50;;;;;;;26.72;41.30;95740.07;1795455;80;21038;-60
2021/07/24 10:09:41;;;;;;;5.95;4.33;;;;;;;26.70;43.22;95731.70;1795140;80;21023;-60
2021/07/24 10:12:10;;;;;;;7.97;4.40;;;;;;;26.72;42.21;95733.80;1795732;80;20983;-60
2021/07/24 10:14:39;;;;;;;5.60;4.60;;;;;;;26.75;39.24;95729.48;1764457;80;21029;-60
2021/07/24 10:17:06;;;;;;;6.45;4.30;;;;;;;26.87;42.45;95728.49;1795536;80;20963;-61
2021/07/24 10:19:33;;;;;;;4.80;4.40;;;;;;;27.07;43.40;95734.99;1795086;80;21007;-60
2021/07/24 10:22:01;;;;;;;6.03;4.58;;;;;;;27.19;42.71;95734.52;1795531;80;21475;-60
2021/07/24 10:24:28;;;;;;;5.58;4.40;;;;;;;27.29;42.61;95729.17;1795037;80;21046;-61
2021/07/24 10:27:24;;;;;;;5.03;4.30;;;;;;;27.37;42.39;95725.35;1795111;80;21521;-60
2021/07/24 10:30:00;;;;;;;6.95;4.15;;;;;;;27.45;41.92;95736.40;1795492;80;21018;-60
2021/07/24 10:32:30;;;;;;;4.80;4.40;;;;;;;27.43;42.07;95732.95;1795505;80;21038;-60
2021/07/24 10:34:57;;;;;;;5.10;4.30;;;;;;;27.58;42.60;95736.23;1795466;80;20986;-60
2021/07/24 10:37:44;;;;;;;5.00;4.03;;;;;;;27.67;42.40;95733.22;1795482;80;21472;-60
2021/07/24 10:40:27;;;;;;;5.28;4.33;;;;;;;27.66;40.58;95730.16;1766261;80;21038;-60
2021/07/24 10:42:55;;;;;;;7.40;4.70;;;;;;;27.67;38.01;95726.45;1795370;80;21030;-60
2021/07/24 10:45:45;;;;;;;6.87;5.10;;;;;;;27.73;39.14;95722.73;1795453;80;21001;-60
2021/07/24 10:48:21;;;;;;;5.17;4.40;;;;;;;27.90;42.00;95735.39;1794214;80;21102;-61
2021/07/24 10:51:02;;;;;;;4.50;4.10;;;;;;;28.03;42.01;95730.13;1795668;80;21437;-61
2021/07/24 10:53:49;;;;;;;6.28;4.42;;;;;;;28.10;39.93;95730.47;1795094;80;21011;-61
2021/07/24 10:56:39;;;;;;;4.80;4.30;;;;;;;27.96;36.85;95720.79;1795390;80;21042;-62
2021/07/24 10:59:23;;;;;;;5.65;4.10;;;;;;;27.94;37.20;95725.48;1795381;80;21082;-60
2021/07/24 11:01:58;;;;;;;4.80;4.40;;;;;;;28.13;38.32;95721.20;1763052;80;21015;-60
2021/07/24 11:04:41;;;;;;;4.83;4.10;;;;;;;28.10;36.15;95722.33;1795305;80;20951;-61
2021/07/24 11:07:25;;;;;;;5.70;4.37;;;;;;;28.20;37.09;95719.68;1795453;80;20995;-61
2021/07/24 11:09:57;;;;;;;5.45;4.58;;;;;;;28.39;37.37;95714.84;1795311;80;21018;-61
2021/07/24 11:12:39;;;;;;;4.90;4.05;;;;;;;28.52;38.04;95719.58;1796021;80;21003;-61
2021/07/24 11:15:09;;;;;;;5.28;4.58;;;;;;;28.61;39.19;95713.34;1795590;80;21010;-61
2021/07/24 11:17:36;;;;;;;6.00;4.42;;;;;;;28.64;38.27;95717.64;1764546;80;20987;-61
2021/07/24 11:20:08;;;;;;;4.95;4.30;;;;;;;28.82;36.58;95710.56;1795158;80;21083;-60
2021/07/24 11:22:56;;;;;;;4.67;4.15;;;;;;;28.97;37.24;95705.61;1795738;80;21054;-61
2021/07/24 11:25:30;;;;;;;4.75;4.00;;;;;;;29.10;37.98;95706.74;1795325;80;21018;-61
2021/07/24 11:27:58;;;;;;;5.20;4.05;;;;;;;29.17;36.90;95711.13;1795609;80;20995;-61
2021/07/24 11:30:26;;;;;;;6.55;4.03;;;;;;;29.11;35.40;95703.89;1795665;80;21006;-61
2021/07/24 11:32:58;;;;;;;5.75;5.00;;;;;;;28.96;36.38;95707.98;1795244;80;20991;-60
2021/07/24 11:35:33;;;;;;;7.43;4.43;;;;;;;28.79;36.61;95710.84;1795562;80;20982;-61
2021/07/24 11:38:01;;;;;;;5.72;4.72;;;;;;;28.77;37.64;95711.97;1795574;80;21498;-60
2021/07/24 11:40:31;;;;;;;5.30;4.80;;;;;;;28.86;37.76;95712.52;1795456;80;21022;-61
2021/07/24 11:43:07;;;;;;;5.72;4.45;;;;;;;28.94;38.19;95707.75;1795192;80;21531;-61
2021/07/24 11:45:38;;;;;;;5.70;4.30;;;;;;;29.05;36.06;95708.98;1795277;80;21018;-61